createdAt,value
2022-10-29T00:02:24.771Z,14.99
2022-10-29T00:04:53.747Z,14.98
2022-10-29T00:07:22.710Z,14.95
2022-10-29T00:09:51.989Z,14.93
2022-10-29T00:12:21.155Z,14.91
2022-10-29T00:14:50.088Z,14.89
2022-10-29T00:17:19.066Z,14.87
2022-10-29T00:19:48.016Z,14.86
2022-10-29T00:22:17.124Z,14.86
2022-10-29T00:24:45.407Z,14.82
2022-10-29T00:27:14.789Z,14.79
2022-10-29T00:29:43.782Z,14.76
2022-10-29T00:32:12.830Z,14.73
2022-10-29T00:34:41.802Z,14.71
2022-10-29T00:37:10.625Z,14.69
2022-10-29T00:39:57.384Z,14.68
2022-10-29T00:42:44.058Z,14.66
2022-10-29T00:45:30.535Z,14.64
2022-10-29T00:47:59.699Z,14.64
2022-10-29T00:50:28.657Z,14.62
2022-10-29T00:53:16.754Z,14.62
2022-10-29T00:55:46.383Z,14.61
2022-10-29T00:58:15.550Z,14.60
2022-10-29T05:00:48.634Z,14.94
2022-10-29T05:03:17.742Z,14.95
2022-10-29T05:05:46.147Z,14.94
2022-10-29T05:08:15.846Z,14.93
2022-10-29T05:10:44.471Z,14.92
2022-10-29T05:13:13.206Z,14.91
2022-10-29T05:15:41.947Z,14.89
2022-10-29T05:18:28.090Z,14.87
2022-10-29T05:20:58.764Z,14.86
2022-10-29T05:23:27.060Z,14.84
2022-10-29T05:25:56.124Z,14.83
2022-10-29T05:28:24.461Z,14.79
2022-10-29T05:31:10.101Z,14.77
2022-10-29T05:33:38.954Z,14.78
2022-10-29T05:36:08.474Z,14.79
2022-10-29T05:38:55.010Z,14.81
2022-10-29T05:41:23.712Z,14.81
2022-10-29T05:44:10.535Z,14.79
2022-10-29T05:46:40.099Z,14.76
2022-10-29T05:49:09.043Z,14.73
2022-10-29T05:51:55.541Z,14.71
2022-10-29T05:54:41.602Z,14.68
2022-10-29T05:57:10.216Z,14.67
2022-10-29T05:59:39.075Z,14.66
2022-10-29T06:02:09.766Z,14.65
2022-10-29T06:04:38.933Z,14.64
2022-10-29T06:07:25.064Z,14.62
2022-10-29T06:10:11.668Z,14.61
2022-10-29T06:12:39.877Z,14.59
2022-10-29T06:15:08.992Z,14.59
2022-10-29T06:17:42.951Z,14.58
2022-10-29T06:20:12.321Z,14.59
2022-10-29T06:22:40.607Z,14.60
2022-10-29T06:25:10.560Z,14.63
2022-10-29T06:27:39.952Z,14.64
2022-10-29T06:30:09.991Z,14.65
2022-10-29T06:32:38.617Z,14.65
2022-10-29T06:35:24.923Z,14.68
2022-10-29T06:37:53.871Z,14.71
2022-10-29T06:40:22.579Z,14.77
2022-10-29T06:43:10.768Z,14.81
2022-10-29T06:45:56.453Z,14.89
2022-10-29T06:48:24.828Z,14.95
2022-10-29T06:51:10.494Z,15.02
2022-10-29T06:53:39.612Z,15.07
2022-10-29T06:56:08.420Z,15.12
2022-10-29T06:58:37.233Z,15.18
2022-10-29T07:01:06.116Z,15.21
2022-10-29T07:03:34.782Z,15.26
2022-10-29T07:06:03.156Z,15.27
2022-10-29T07:08:33.445Z,15.32
2022-10-29T07:11:03.470Z,15.36
2022-10-29T07:13:31.742Z,15.39
2022-10-29T07:15:59.998Z,15.41
2022-10-29T07:18:45.918Z,15.43
2022-10-29T07:21:32.080Z,15.45
2022-10-29T07:24:00.701Z,15.45
2022-10-29T07:26:46.989Z,15.42
2022-10-29T07:29:33.463Z,15.39
2022-10-29T07:32:02.326Z,15.36
2022-10-29T07:34:48.813Z,15.32
2022-10-29T07:37:17.690Z,15.32
2022-10-29T07:40:04.231Z,15.35
2022-10-29T07:42:52.231Z,15.34
2022-10-29T07:45:21.187Z,15.38
2022-10-29T07:47:50.180Z,15.42
2022-10-29T07:50:18.595Z,15.46
2022-10-29T07:52:48.483Z,15.51
2022-10-29T07:55:34.871Z,15.54
2022-10-29T07:58:05.064Z,15.55
2022-10-29T08:00:34.568Z,15.59
2022-10-29T08:03:04.074Z,15.66
2022-10-29T08:05:56.210Z,15.74
2022-10-29T08:08:25.646Z,15.82
2022-10-29T08:11:02.013Z,15.95
2022-10-29T08:13:32.957Z,16.09
2022-10-29T08:16:19.627Z,16.21
2022-10-29T08:18:47.981Z,16.30
2022-10-29T08:21:16.408Z,16.37
2022-10-29T08:23:45.768Z,16.48
2022-10-29T08:26:14.401Z,16.59
2022-10-29T08:28:45.997Z,16.68
2022-10-29T08:31:15.289Z,16.75
2022-10-29T08:33:43.847Z,16.83
2022-10-29T08:36:30.355Z,16.90
2022-10-29T08:38:58.955Z,16.95
2022-10-29T08:41:27.760Z,16.98
2022-10-29T08:44:04.415Z,17.04
2022-10-29T08:46:36.053Z,17.11
2022-10-29T08:49:28.089Z,17.17
2022-10-29T08:52:10.834Z,17.23
2022-10-29T08:54:42.088Z,17.20
2022-10-29T08:57:18.477Z,17.11
2022-10-29T08:59:59.510Z,17.00
2022-10-29T09:02:31.385Z,16.93
2022-10-29T09:05:02.573Z,16.89
2022-10-29T09:07:38.585Z,16.89
2022-10-29T09:10:34.529Z,16.88
2022-10-29T09:13:26.899Z,16.87
2022-10-29T09:16:05.635Z,16.85
2022-10-29T09:18:51.934Z,16.88
2022-10-29T09:21:44.782Z,16.80
2022-10-29T09:24:16.759Z,16.75
2022-10-29T09:26:58.912Z,16.71
2022-10-29T09:29:34.733Z,16.67
2022-10-29T09:32:24.955Z,16.67
2022-10-29T09:34:57.780Z,16.65
2022-10-29T09:37:29.313Z,16.64
2022-10-29T09:40:00.059Z,16.65
2022-10-29T09:42:48.624Z,16.67
2022-10-29T09:45:19.447Z,16.70
2022-10-29T09:48:07.458Z,16.74
2022-10-29T09:50:56.678Z,16.78
2022-10-29T09:53:25.229Z,16.82
2022-10-29T09:55:54.250Z,16.86
2022-10-29T09:58:28.189Z,16.87
2022-10-29T10:00:57.701Z,16.89
2022-10-29T10:03:31.461Z,16.84
2022-10-29T10:06:04.847Z,16.82
2022-10-29T10:08:34.869Z,16.81
2022-10-29T10:11:21.767Z,16.87
2022-10-29T10:13:52.453Z,16.93
2022-10-29T10:16:25.507Z,17.05
2022-10-29T10:18:53.857Z,17.19
2022-10-29T10:21:39.964Z,17.26
2022-10-29T10:24:27.172Z,17.31
2022-10-29T10:26:56.276Z,17.38
2022-10-29T10:29:28.094Z,17.44
2022-10-29T10:31:57.643Z,17.54
2022-10-29T10:34:27.550Z,17.70
2022-10-29T10:37:02.693Z,17.78
2022-10-29T10:39:54.275Z,17.76
2022-10-29T10:42:24.446Z,17.78
2022-10-29T10:45:03.488Z,17.80
2022-10-29T10:47:34.338Z,17.79
2022-10-29T10:50:31.084Z,17.76
2022-10-29T10:53:01.596Z,17.70
2022-10-29T10:55:39.854Z,17.67
2022-10-29T10:58:14.106Z,17.66
2022-10-29T11:00:46.009Z,17.63
2022-10-29T11:03:14.713Z,17.58
2022-10-29T11:06:01.555Z,17.56
2022-10-29T11:08:44.244Z,17.58
2022-10-29T11:11:17.877Z,17.58
2022-10-29T11:13:46.518Z,17.56
2022-10-29T11:16:39.038Z,17.57
2022-10-29T11:19:25.230Z,17.58
2022-10-29T11:22:02.406Z,17.61
2022-10-29T11:24:35.861Z,17.64
2022-10-29T11:27:14.190Z,17.64
2022-10-29T11:30:02.153Z,17.62
2022-10-29T11:32:38.156Z,17.58
2022-10-29T11:35:12.634Z,17.56
2022-10-29T11:37:56.970Z,17.56
2022-10-29T11:40:45.950Z,17.52
2022-10-29T11:43:17.125Z,17.44
2022-10-29T11:45:46.678Z,17.39
2022-10-29T11:48:34.751Z,17.39
2022-10-29T11:51:20.187Z,17.43
2022-10-29T11:53:58.197Z,17.46
2022-10-29T11:56:33.884Z,17.49
2022-10-29T11:59:20.235Z,17.53
2022-10-29T12:01:56.891Z,17.52
2022-10-29T12:04:51.748Z,17.53
2022-10-29T12:07:53.021Z,17.59
2022-10-29T12:10:37.483Z,17.63
2022-10-29T12:13:24.941Z,17.62
2022-10-29T12:16:13.672Z,17.63
2022-10-29T12:19:02.714Z,17.63
2022-10-29T12:22:15.368Z,17.64
2022-10-29T12:25:15.745Z,17.61
2022-10-29T12:27:45.068Z,17.61
2022-10-29T12:30:16.769Z,17.59
2022-10-29T12:32:48.947Z,17.55
2022-10-29T12:35:34.055Z,17.52
2022-10-29T12:38:12.206Z,17.48
2022-10-29T12:40:44.061Z,17.45
2022-10-29T12:43:33.225Z,17.43
2022-10-29T12:46:22.488Z,17.39
2022-10-29T12:49:15.870Z,17.31
2022-10-29T12:52:04.662Z,17.29
2022-10-29T12:54:39.279Z,17.24
2022-10-29T12:57:14.476Z,17.19
2022-10-29T12:59:44.465Z,17.16
2022-10-29T13:02:20.136Z,17.13
2022-10-29T13:05:12.496Z,17.11
2022-10-29T13:07:59.305Z,17.09
2022-10-29T13:10:50.701Z,17.07
2022-10-29T13:13:21.440Z,17.05
2022-10-29T13:15:58.860Z,17.03
2022-10-29T13:18:37.578Z,17.00
2022-10-29T13:21:09.066Z,16.98
2022-10-29T13:23:38.476Z,16.97
2022-10-29T13:26:08.744Z,16.97
2022-10-29T13:28:37.727Z,16.93
2022-10-29T13:31:24.558Z,16.90
2022-10-29T13:33:53.400Z,16.84
2022-10-29T13:36:22.565Z,16.80
2022-10-29T13:39:05.279Z,16.80
2022-10-29T13:41:43.734Z,16.80
2022-10-29T13:44:13.430Z,16.79
2022-10-29T13:46:46.589Z,16.75
2022-10-29T13:49:33.996Z,16.73
2022-10-29T13:52:11.095Z,16.71
2022-10-29T13:54:43.096Z,16.66
2022-10-29T13:57:52.338Z,16.54
2022-10-29T14:00:21.335Z,16.46
2022-10-29T14:03:16.781Z,16.41
2022-10-29T14:05:47.784Z,16.40
2022-10-29T14:08:19.827Z,16.39
2022-10-29T14:10:51.553Z,16.32
2022-10-29T14:13:23.635Z,16.30
2022-10-29T14:16:06.396Z,16.31
2022-10-29T14:18:41.122Z,16.30
2022-10-29T14:21:15.190Z,16.27
2022-10-29T14:24:03.226Z,16.27
2022-10-29T14:26:36.148Z,16.26
2022-10-29T14:29:15.686Z,16.20
2022-10-29T14:31:44.435Z,16.15
2022-10-29T14:34:24.212Z,16.12
2022-10-29T14:36:57.153Z,16.08
2022-10-29T14:39:32.659Z,16.06
2022-10-29T14:44:53.703Z,16.00
2022-10-29T14:47:28.970Z,15.96
2022-10-29T14:50:03.255Z,15.93
2022-10-29T14:53:01.693Z,15.84
2022-10-29T14:55:35.596Z,15.82
2022-10-29T14:58:10.299Z,15.81
2022-10-29T15:00:40.086Z,15.80
2022-10-29T15:03:09.142Z,15.81
2022-10-29T15:05:38.501Z,15.83
2022-10-29T15:08:19.446Z,15.82
2022-10-29T15:11:01.717Z,15.79
2022-10-29T15:13:32.767Z,15.76
2022-10-29T15:16:21.082Z,15.73
2022-10-29T15:18:52.773Z,15.71
2022-10-29T15:21:25.133Z,15.68
2022-10-29T15:23:56.708Z,15.65
2022-10-29T15:27:09.687Z,15.63
2022-10-29T15:29:43.202Z,15.59
2022-10-29T15:32:14.979Z,15.53
2022-10-29T15:35:01.257Z,15.47
2022-10-29T15:37:47.621Z,15.42
2022-10-29T15:40:18.044Z,15.38
2022-10-29T15:42:47.585Z,15.35
2022-10-29T15:45:19.635Z,15.30
2022-10-29T15:47:49.958Z,15.27
2022-10-29T15:50:25.156Z,15.26
2022-10-29T15:52:58.194Z,15.24
2022-10-29T15:55:32.942Z,15.21
2022-10-29T15:58:07.488Z,15.18
2022-10-29T16:00:36.944Z,15.15
2022-10-29T16:03:25.116Z,15.15
2022-10-29T16:06:00.312Z,15.13
2022-10-29T16:08:30.388Z,15.13
2022-10-29T16:11:00.387Z,15.11
2022-10-29T16:13:30.931Z,15.12
2022-10-29T16:16:00.734Z,15.10
2022-10-29T16:18:29.816Z,15.08
2022-10-29T16:20:59.708Z,15.05
2022-10-29T16:23:28.918Z,15.02
2022-10-29T16:25:57.596Z,14.97
2022-10-29T16:28:26.501Z,14.93
2022-10-29T16:30:56.702Z,14.92
2022-10-29T16:33:26.113Z,14.91
2022-10-29T16:35:55.255Z,14.88
2022-10-29T16:38:24.579Z,14.86
2022-10-29T16:40:54.272Z,14.83
2022-10-29T16:43:22.940Z,14.78
2022-10-29T16:48:25.244Z,14.70
2022-10-29T16:50:54.256Z,14.67
2022-10-29T16:53:23.159Z,14.64
2022-10-29T16:55:52.471Z,14.62
2022-10-29T16:58:38.596Z,14.57
2022-10-29T17:01:08.746Z,14.55
2022-10-29T17:03:54.483Z,14.54
2022-10-29T17:06:23.322Z,14.54
2022-10-29T17:08:51.866Z,14.55
2022-10-29T17:11:20.321Z,14.55
2022-10-29T17:13:49.328Z,14.54
2022-10-29T17:16:19.279Z,14.53
2022-10-29T17:19:05.494Z,14.51
2022-10-29T17:21:51.912Z,14.49
2022-10-29T17:24:20.646Z,14.45
2022-10-29T17:27:07.369Z,14.43
2022-10-29T17:29:53.679Z,14.42
2022-10-29T17:32:23.171Z,14.42
2022-10-29T17:35:09.936Z,14.40
2022-10-29T17:37:39.094Z,14.34
2022-10-29T17:40:08.632Z,14.29
2022-10-29T17:42:37.437Z,14.25
2022-10-29T17:45:06.837Z,14.25
2022-10-29T17:47:35.754Z,14.23
2022-10-29T17:50:04.790Z,14.20
2022-10-29T17:52:33.840Z,14.21
2022-10-29T17:55:02.774Z,14.18
2022-10-29T17:57:31.881Z,14.11
2022-10-29T18:00:18.068Z,14.08
2022-10-29T18:02:49.721Z,14.05
2022-10-29T18:05:36.604Z,14.05
2022-10-29T18:08:06.006Z,14.05
2022-10-29T18:10:35.421Z,14.06
2022-10-29T18:13:03.563Z,14.04
2022-10-29T18:15:32.572Z,14.08
2022-10-29T18:18:01.629Z,14.09
2022-10-29T18:20:29.919Z,14.09
2022-10-29T18:22:58.474Z,14.09
2022-10-29T18:25:27.434Z,14.10
2022-10-29T18:27:56.853Z,14.11
2022-10-29T18:30:25.476Z,14.10
2022-10-29T18:32:54.058Z,14.08
2022-10-29T18:35:22.526Z,14.09
2022-10-29T18:37:51.043Z,14.07
2022-10-29T18:40:19.399Z,14.07
2022-10-29T18:43:05.557Z,14.11
2022-10-29T18:45:58.973Z,14.13
2022-10-29T18:48:47.175Z,14.13
2022-10-29T18:51:25.891Z,14.13
2022-10-29T18:53:54.975Z,14.14
2022-10-29T18:56:23.550Z,14.12
2022-10-29T18:58:51.975Z,14.13
2022-10-29T19:01:38.139Z,14.13
2022-10-29T19:04:11.389Z,14.12
2022-10-29T19:06:39.789Z,14.12
2022-10-29T19:09:08.772Z,14.12
2022-10-29T19:11:37.646Z,14.11
2022-10-29T19:14:07.511Z,14.07
2022-10-29T19:16:35.931Z,14.03
2022-10-29T19:19:23.935Z,13.99
2022-10-29T19:21:52.797Z,13.93
2022-10-29T19:24:38.982Z,13.88
2022-10-29T19:27:07.108Z,13.85
2022-10-29T19:29:52.986Z,13.85
2022-10-29T19:32:21.104Z,13.86
2022-10-29T19:34:49.810Z,13.84
2022-10-29T19:37:18.933Z,13.77
2022-10-29T19:39:47.631Z,13.72
2022-10-29T19:42:16.974Z,13.68
2022-10-29T19:45:03.442Z,13.63
2022-10-29T19:47:31.883Z,13.61
2022-10-29T19:50:18.625Z,13.57
2022-10-29T19:52:47.379Z,13.54
2022-10-29T19:55:16.738Z,13.52
2022-10-29T19:57:45.336Z,13.49
2022-10-29T20:00:31.204Z,13.46
2022-10-29T20:02:59.816Z,13.45
2022-10-29T20:05:31.901Z,13.44
2022-10-29T20:08:01.015Z,13.42
2022-10-29T20:10:30.008Z,13.40
2022-10-29T20:12:58.857Z,13.43
2022-10-29T20:15:45.116Z,13.43
2022-10-29T20:18:13.701Z,13.41
2022-10-29T20:20:43.005Z,13.40
2022-10-29T20:23:11.968Z,13.42
2022-10-29T20:25:40.570Z,13.43
2022-10-29T20:28:26.777Z,13.41
2022-10-29T20:31:32.944Z,13.39
2022-10-29T20:34:03.438Z,13.39
2022-10-29T20:36:33.126Z,13.39
2022-10-29T20:39:20.684Z,13.39
2022-10-29T20:41:49.663Z,13.37
2022-10-29T20:44:18.485Z,13.38
2022-10-29T20:47:04.313Z,13.42
2022-10-29T20:49:33.114Z,13.46
2022-10-29T20:52:01.481Z,13.46
2022-10-29T20:54:29.942Z,13.48
2022-10-29T20:56:58.303Z,13.49
2022-10-29T20:59:26.752Z,13.48
2022-10-29T21:01:55.364Z,13.48
2022-10-29T21:04:41.554Z,13.49
2022-10-29T21:07:10.116Z,13.49
2022-10-29T21:09:38.432Z,13.48
2022-10-29T21:12:07.442Z,13.46
2022-10-29T21:14:35.979Z,13.45
2022-10-29T21:17:04.360Z,13.42
2022-10-29T21:19:33.633Z,13.39
2022-10-29T21:22:01.797Z,13.37
2022-10-29T21:24:30.196Z,13.33
2022-10-29T21:26:58.722Z,13.27
2022-10-29T21:29:27.237Z,13.23
2022-10-29T21:31:55.673Z,13.22
2022-10-29T21:34:24.077Z,13.20
2022-10-29T21:36:52.534Z,13.15
2022-10-29T21:39:20.972Z,13.04
2022-10-29T21:41:49.913Z,12.95
2022-10-29T21:44:18.810Z,12.88
2022-10-29T21:46:47.049Z,12.82
2022-10-29T21:49:15.298Z,12.81
2022-10-29T21:52:02.271Z,12.79
2022-10-29T21:54:48.037Z,12.81
2022-10-29T21:57:17.005Z,12.82
2022-10-29T21:59:45.868Z,12.80
2022-10-29T22:02:32.615Z,12.78
2022-10-29T22:05:01.303Z,12.75
2022-10-29T22:07:30.085Z,12.72
2022-10-29T22:09:59.270Z,12.68
2022-10-29T22:15:14.585Z,12.67
2022-10-29T22:17:43.492Z,12.65
2022-10-29T22:20:13.027Z,12.62
2022-10-29T22:22:41.791Z,12.51
2022-10-29T22:25:10.855Z,12.43
2022-10-29T22:27:39.876Z,12.37
2022-10-29T22:30:09.413Z,12.37
2022-10-29T22:32:37.782Z,12.41
2022-10-29T22:35:06.959Z,12.46
2022-10-29T22:37:35.981Z,12.46
2022-10-29T22:40:05.030Z,12.45
2022-10-29T22:42:34.074Z,12.48
2022-10-29T22:45:02.771Z,12.49
2022-10-29T22:47:31.697Z,12.53
2022-10-29T22:50:01.488Z,12.55
2022-10-29T22:52:30.621Z,12.56
2022-10-29T22:54:59.694Z,12.56
2022-10-29T22:57:46.425Z,12.56
2022-10-29T23:00:32.622Z,12.57
2022-10-29T23:03:01.598Z,12.57
2022-10-29T23:05:56.714Z,12.57
2022-10-29T23:08:25.795Z,12.47
2022-10-29T23:11:19.899Z,12.46
2022-10-29T23:14:06.644Z,12.49
2022-10-29T23:16:35.933Z,12.53
2022-10-29T23:19:05.861Z,12.56
2022-10-29T23:21:52.328Z,12.56
2022-10-29T23:24:21.329Z,12.58
2022-10-29T23:26:50.315Z,12.59
2022-10-29T23:29:37.030Z,12.61
2022-10-29T23:32:06.198Z,12.60
2022-10-29T23:34:35.313Z,12.57
2022-10-29T23:37:05.725Z,12.51
2022-10-29T23:39:55.489Z,12.43
2022-10-29T23:42:42.333Z,12.43
2022-10-29T23:45:28.066Z,12.42
2022-10-29T23:47:57.104Z,12.38
2022-10-29T23:50:26.130Z,12.39
2022-10-29T23:52:55.183Z,12.39
2022-10-29T23:55:45.402Z,12.40
2022-10-29T23:58:14.805Z,12.39
